createdAt,value
2018-04-19T00:01:03.295Z,26.42
2018-04-19T00:03:30.622Z,25.83
2018-04-19T00:05:57.618Z,24.55
2018-04-19T00:08:25.320Z,23.42
2018-04-19T00:10:52.280Z,25.45
2018-04-19T00:13:20.509Z,26.15
2018-04-19T00:15:47.298Z,27.52
2018-04-19T00:18:14.086Z,23.67
2018-04-19T00:20:41.022Z,29.00
2018-04-19T00:23:08.136Z,25.65
2018-04-19T00:25:34.967Z,27.62
2018-04-19T00:28:02.065Z,23.27
2018-04-19T00:30:29.705Z,25.95
2018-04-19T00:32:56.640Z,27.15
2018-04-19T00:35:23.364Z,28.33
2018-04-19T00:37:50.202Z,26.87
2018-04-19T00:40:17.310Z,24.77
2018-04-19T00:42:48.160Z,26.45
2018-04-19T00:45:14.983Z,30.45
2018-04-19T00:47:41.714Z,25.80
2018-04-19T00:50:08.836Z,25.73
2018-04-19T00:52:41.585Z,25.85
2018-04-19T00:55:08.647Z,28.70
2018-04-19T00:57:35.602Z,27.85
2018-04-19T01:00:02.453Z,27.27
2018-04-19T01:02:29.375Z,25.65
2018-04-19T01:04:56.366Z,29.15
2018-04-19T01:07:23.175Z,25.55
2018-04-19T01:09:49.878Z,25.50
2018-04-19T01:12:16.954Z,28.02
2018-04-19T01:14:44.592Z,26.80
2018-04-19T01:17:12.177Z,29.10
2018-04-19T01:19:39.121Z,28.05
2018-04-19T01:22:06.271Z,30.65
2018-04-19T01:24:33.522Z,30.25
2018-04-19T01:27:00.320Z,25.17
2018-04-19T01:29:27.160Z,25.65
2018-04-19T01:31:54.100Z,26.98
2018-04-19T01:34:21.662Z,27.98
2018-04-19T01:36:48.778Z,23.70
2018-04-19T01:39:17.293Z,27.90
2018-04-19T01:41:44.669Z,27.95
2018-04-19T01:44:11.505Z,26.80
2018-04-19T01:46:38.392Z,25.25
2018-04-19T01:49:05.735Z,25.98
2018-04-19T01:51:32.571Z,26.58
2018-04-19T01:53:59.500Z,25.90
2018-04-19T01:56:26.221Z,25.48
2018-04-19T01:58:53.002Z,25.52
2018-04-19T02:01:23.786Z,26.17
2018-04-19T02:03:51.735Z,25.00
2018-04-19T02:06:18.672Z,27.00
2018-04-19T02:08:46.032Z,24.10
2018-04-19T02:11:13.596Z,29.35
2018-04-19T02:13:40.489Z,24.77
2018-04-19T02:16:07.251Z,28.33
2018-04-19T02:18:34.009Z,24.05
2018-04-19T02:21:01.098Z,24.25
2018-04-19T02:23:29.762Z,27.17
2018-04-19T02:25:57.360Z,25.20
2018-04-19T02:28:24.115Z,23.35
2018-04-19T02:30:50.932Z,25.52
2018-04-19T02:33:17.843Z,26.40
2018-04-19T02:35:45.637Z,25.98
2018-04-19T02:38:12.456Z,25.42
2018-04-19T02:40:39.234Z,25.85
2018-04-19T02:43:06.091Z,24.02
2018-04-19T02:45:32.976Z,27.37
2018-04-19T02:47:59.747Z,24.60
2018-04-19T02:50:26.704Z,25.27
2018-04-19T02:52:54.196Z,24.23
2018-04-19T02:55:21.257Z,27.42
2018-04-19T02:57:48.331Z,26.80
2018-04-19T03:00:15.237Z,24.15
2018-04-19T03:02:42.295Z,28.20
2018-04-19T03:05:10.011Z,26.48
2018-04-19T03:07:38.178Z,24.33
2018-04-19T03:10:05.006Z,26.05
2018-04-19T03:12:32.187Z,27.33
2018-04-19T03:14:59.126Z,26.58
2018-04-19T03:17:26.867Z,27.62
2018-04-19T03:19:54.178Z,29.50
2018-04-19T03:22:21.081Z,26.25
2018-04-19T03:24:49.140Z,25.95
2018-04-19T03:27:16.031Z,28.98
2018-04-19T03:29:42.788Z,28.92
2018-04-19T03:32:09.539Z,30.50
2018-04-19T03:34:36.293Z,26.83
2018-04-19T03:37:03.851Z,28.33
2018-04-19T03:39:38.911Z,29.50
2018-04-19T03:42:06.989Z,28.83
2018-04-19T03:44:33.790Z,28.27
2018-04-19T03:47:01.170Z,26.62
2018-04-19T03:49:28.792Z,28.75
2018-04-19T03:51:56.207Z,29.52
2018-04-19T03:54:23.042Z,27.35
2018-04-19T03:56:49.911Z,28.05
2018-04-19T03:59:17.051Z,29.98
2018-04-19T04:01:44.952Z,30.70
2018-04-19T04:04:11.790Z,35.33
2018-04-19T04:06:38.512Z,26.48
2018-04-19T04:09:05.263Z,32.10
2018-04-19T04:11:32.028Z,27.65
2018-04-19T04:13:58.873Z,28.45
2018-04-19T04:16:31.653Z,29.08
2018-04-19T04:19:04.223Z,30.90
2018-04-19T04:21:32.527Z,28.05
2018-04-19T04:23:59.384Z,29.08
2018-04-19T04:26:26.924Z,26.73
2018-04-19T04:28:54.335Z,30.60
2018-04-19T04:31:21.181Z,28.55
2018-04-19T04:33:48.196Z,27.15
2018-04-19T04:36:15.450Z,28.35
2018-04-19T04:38:42.897Z,28.00
2018-04-19T04:41:11.306Z,26.20
2018-04-19T04:43:38.279Z,29.02
2018-04-19T04:46:04.998Z,28.38
2018-04-19T04:48:32.587Z,27.55
2018-04-19T04:51:05.767Z,27.10
2018-04-19T04:53:32.656Z,27.80
2018-04-19T04:55:59.607Z,26.92
2018-04-19T04:58:28.317Z,26.80
2018-04-19T05:00:55.622Z,31.67
2018-04-19T05:03:26.885Z,27.92
2018-04-19T05:05:53.701Z,29.35
2018-04-19T05:08:23.381Z,26.20
2018-04-19T05:10:50.107Z,29.63
2018-04-19T05:13:16.982Z,31.50
2018-04-19T05:15:43.885Z,28.52
2018-04-19T05:18:10.777Z,26.42
2018-04-19T05:20:37.588Z,28.73
2018-04-19T05:23:04.371Z,26.77
2018-04-19T05:25:31.178Z,25.10
2018-04-19T05:27:58.780Z,28.00
2018-04-19T05:30:25.613Z,27.33
2018-04-19T05:32:52.385Z,25.10
2018-04-19T05:35:19.259Z,25.77
2018-04-19T05:37:47.308Z,26.42
2018-04-19T05:40:14.985Z,26.42
2018-04-19T05:42:45.455Z,25.73
2018-04-19T05:45:12.497Z,28.42
2018-04-19T05:47:39.264Z,27.25
2018-04-19T05:50:06.106Z,28.20
2018-04-19T05:52:32.889Z,25.12
2018-04-19T05:54:59.807Z,27.15
2018-04-19T05:57:26.688Z,25.98
2018-04-19T05:59:53.520Z,26.35
2018-04-19T06:02:20.360Z,28.58
2018-04-19T06:04:47.189Z,25.85
2018-04-19T06:07:14.005Z,25.70
2018-04-19T06:09:40.784Z,29.90
2018-04-19T06:12:07.530Z,25.67
2018-04-19T06:14:34.305Z,25.92
2018-04-19T06:17:01.038Z,27.52
2018-04-19T06:19:27.759Z,29.03
2018-04-19T06:21:54.524Z,27.13
2018-04-19T06:24:21.269Z,30.37
2018-04-19T06:26:48.010Z,28.07
2018-04-19T06:29:14.808Z,28.47
2018-04-19T06:31:41.681Z,25.00
2018-04-19T06:34:08.508Z,28.90
2018-04-19T06:36:35.369Z,26.60
2018-04-19T06:39:02.110Z,27.70
2018-04-19T06:41:28.898Z,25.07
2018-04-19T06:43:55.567Z,24.40
2018-04-19T06:46:22.329Z,24.90
2018-04-19T06:48:49.063Z,1999.90
2018-04-19T06:51:15.996Z,1999.90
2018-04-19T06:53:42.730Z,1999.90
2018-04-19T06:56:09.518Z,1999.90
2018-04-19T06:58:36.276Z,1999.90
2018-04-19T07:01:03.002Z,1999.90
2018-04-19T07:03:29.765Z,1999.90
2018-04-19T07:05:56.568Z,1999.90
2018-04-19T07:08:24.153Z,1999.90
2018-04-19T07:10:50.821Z,1999.90
2018-04-19T07:13:17.601Z,22.17
2018-04-19T07:15:44.408Z,23.83
2018-04-19T07:18:11.213Z,24.87
2018-04-19T07:20:37.966Z,29.40
2018-04-19T07:23:04.832Z,27.40
2018-04-19T07:25:31.887Z,32.63
2018-04-19T07:27:58.821Z,33.40
2018-04-19T07:30:25.507Z,29.00
2018-04-19T07:32:52.313Z,27.13
2018-04-19T07:35:19.707Z,28.27
2018-04-19T07:37:46.514Z,30.63
2018-04-19T07:40:13.339Z,27.70
2018-04-19T07:42:40.962Z,27.43
2018-04-19T07:45:08.157Z,28.03
2018-04-19T07:47:37.090Z,25.80
2018-04-19T07:50:03.924Z,27.00
2018-04-19T07:52:31.184Z,26.07
2018-04-19T07:54:59.080Z,26.43
2018-04-19T07:57:25.866Z,27.03
2018-04-19T07:59:52.715Z,27.93
2018-04-19T08:02:19.529Z,27.30
2018-04-19T08:04:46.550Z,27.30
2018-04-19T08:07:13.515Z,26.33
2018-04-19T08:09:40.329Z,27.87
2018-04-19T08:12:07.130Z,26.27
2018-04-19T08:14:33.965Z,28.87
2018-04-19T08:17:00.839Z,26.73
2018-04-19T08:19:27.617Z,30.37
2018-04-19T08:21:54.395Z,29.43
2018-04-19T08:24:21.253Z,26.60
2018-04-19T08:26:48.099Z,27.67
2018-04-19T08:29:14.807Z,29.63
2018-04-19T08:31:41.551Z,28.07
2018-04-19T08:34:08.362Z,24.90
2018-04-19T08:36:35.156Z,25.30
2018-04-19T08:39:01.934Z,26.13
2018-04-19T08:41:28.796Z,26.20
2018-04-19T08:43:55.581Z,25.23
2018-04-19T08:46:22.345Z,25.70
2018-04-19T08:48:49.188Z,25.97
2018-04-19T08:51:15.889Z,25.77
2018-04-19T08:53:42.641Z,25.87
2018-04-19T08:56:09.388Z,24.20
2018-04-19T08:58:36.432Z,21.90
2018-04-19T09:01:03.360Z,24.20
2018-04-19T09:03:30.216Z,22.63
2018-04-19T09:05:57.044Z,26.07
2018-04-19T09:08:23.925Z,24.03
2018-04-19T09:10:50.770Z,22.37
2018-04-19T09:13:17.516Z,23.50
2018-04-19T09:15:44.311Z,28.13
2018-04-19T09:18:11.015Z,24.03
2018-04-19T09:20:37.918Z,24.27
2018-04-19T09:23:04.651Z,23.90
2018-04-19T09:25:31.440Z,22.10
2018-04-19T09:27:58.382Z,21.43
2018-04-19T09:30:25.101Z,24.67
2018-04-19T09:32:51.869Z,23.20
2018-04-19T09:35:18.656Z,22.20
2018-04-19T09:37:45.373Z,20.10
2018-04-19T09:40:12.232Z,22.20
2018-04-19T09:42:38.955Z,21.80
2018-04-19T09:45:05.800Z,22.80
2018-04-19T09:47:32.703Z,23.90
2018-04-19T09:49:59.525Z,22.83
2018-04-19T09:52:26.459Z,23.23
2018-04-19T09:54:53.208Z,22.97
2018-04-19T09:57:19.951Z,23.80
2018-04-19T09:59:46.827Z,26.50
2018-04-19T10:02:13.668Z,25.37
2018-04-19T10:04:40.485Z,25.07
2018-04-19T10:07:07.347Z,22.70
2018-04-19T10:09:35.478Z,25.47
2018-04-19T10:12:02.450Z,26.37
2018-04-19T10:14:33.501Z,23.97
2018-04-19T10:17:00.630Z,24.57
2018-04-19T10:19:28.300Z,25.73
2018-04-19T10:21:55.875Z,23.87
2018-04-19T10:24:23.537Z,24.03
2018-04-19T10:26:51.973Z,22.03
2018-04-19T10:29:22.860Z,22.70
2018-04-19T10:31:49.695Z,24.03
2018-04-19T10:34:16.492Z,24.80
2018-04-19T10:36:43.834Z,26.53
2018-04-19T10:39:10.679Z,23.57
2018-04-19T10:41:38.289Z,23.50
2018-04-19T10:44:05.799Z,24.17
2018-04-19T10:46:32.730Z,21.90
2018-04-19T10:48:59.821Z,25.00
2018-04-19T10:51:27.927Z,21.20
2018-04-19T10:53:54.669Z,23.20
2018-04-19T10:56:21.746Z,22.23
2018-04-19T10:58:48.836Z,22.57
2018-04-19T11:01:15.657Z,21.93
2018-04-19T11:03:42.489Z,23.23
2018-04-19T11:06:09.667Z,21.97
2018-04-19T11:08:36.504Z,21.03
2018-04-19T11:11:03.989Z,21.40
2018-04-19T11:13:30.800Z,23.03
2018-04-19T11:15:57.893Z,20.50
2018-04-19T11:18:24.905Z,20.67
2018-04-19T11:20:51.888Z,23.87
2018-04-19T11:23:18.833Z,21.77
2018-04-19T11:25:45.796Z,22.93
2018-04-19T11:28:14.199Z,20.03
2018-04-19T11:30:42.686Z,21.40
2018-04-19T11:33:09.547Z,19.80
2018-04-19T11:35:36.466Z,21.90
2018-04-19T11:38:03.324Z,20.40
2018-04-19T11:40:30.143Z,19.37
2018-04-19T11:42:57.070Z,20.00
2018-04-19T11:45:25.742Z,18.60
2018-04-19T11:47:52.851Z,19.80
2018-04-19T11:50:19.837Z,21.73
2018-04-19T11:52:46.700Z,19.80
2018-04-19T11:55:13.624Z,20.13
2018-04-19T11:57:40.648Z,21.67
2018-04-19T12:00:07.469Z,21.53
2018-04-19T12:02:34.933Z,20.33
2018-04-19T12:05:01.782Z,19.90
2018-04-19T12:07:28.552Z,19.27
2018-04-19T12:09:55.510Z,19.63
2018-04-19T12:12:25.891Z,18.17
2018-04-19T12:14:52.718Z,18.57
2018-04-19T12:17:20.078Z,18.60
2018-04-19T12:19:47.550Z,18.30
2018-04-19T12:22:14.938Z,18.20
2018-04-19T12:24:41.790Z,18.00
2018-04-19T12:27:08.836Z,18.00
2018-04-19T12:29:35.693Z,19.13
2018-04-19T12:32:02.741Z,17.10
2018-04-19T12:34:30.319Z,17.47
2018-04-19T12:36:57.153Z,17.73
2018-04-19T12:39:23.886Z,19.07
2018-04-19T12:41:50.727Z,18.07
2018-04-19T12:44:17.503Z,20.03
2018-04-19T12:46:44.262Z,19.93
2018-04-19T12:49:11.049Z,19.30
2018-04-19T12:51:37.869Z,18.13
2018-04-19T12:54:04.647Z,17.87
2018-04-19T12:56:31.409Z,18.30
2018-04-19T12:58:58.501Z,18.17
2018-04-19T13:01:25.225Z,18.33
2018-04-19T13:03:52.072Z,17.90
2018-04-19T13:06:18.821Z,19.17
2018-04-19T13:08:45.595Z,20.60
2018-04-19T13:11:12.296Z,19.27
2018-04-19T13:13:39.177Z,17.30
2018-04-19T13:16:05.947Z,17.90
2018-04-19T13:18:32.677Z,19.13
2018-04-19T13:20:59.459Z,17.20
2018-04-19T13:23:26.188Z,18.90
2018-04-19T13:25:53.243Z,18.80
2018-04-19T13:28:19.996Z,17.60
2018-04-19T13:30:46.697Z,17.50
2018-04-19T13:33:13.516Z,19.77
2018-04-19T13:35:40.398Z,19.40
2018-04-19T13:38:07.228Z,17.50
2018-04-19T13:40:33.954Z,18.93
2018-04-19T13:43:00.677Z,19.30
2018-04-19T13:45:27.510Z,18.90
2018-04-19T13:47:54.271Z,17.83
2018-04-19T13:50:21.048Z,19.00
2018-04-19T13:52:47.855Z,18.47
2018-04-19T13:55:14.696Z,17.93
2018-04-19T13:57:41.672Z,18.47
2018-04-19T14:00:13.260Z,17.97
2018-04-19T14:02:40.119Z,18.60
2018-04-19T14:05:06.830Z,17.57
2018-04-19T14:07:33.521Z,19.00
2018-04-19T14:10:00.396Z,19.50
2018-04-19T14:12:27.238Z,21.00
2018-04-19T14:14:54.142Z,19.10
2018-04-19T14:17:21.083Z,17.80
2018-04-19T14:19:48.716Z,17.80
2018-04-19T14:22:15.611Z,17.27
2018-04-19T14:24:42.462Z,19.10
2018-04-19T14:27:09.323Z,21.00
2018-04-19T14:29:36.004Z,21.90
2018-04-19T14:32:02.789Z,18.63
2018-04-19T14:34:29.941Z,22.43
2018-04-19T14:36:56.726Z,17.73
2018-04-19T14:39:23.460Z,19.20
2018-04-19T14:41:50.323Z,19.43
2018-04-19T14:44:17.098Z,19.00
2018-04-19T14:46:43.927Z,22.47
2018-04-19T14:49:10.863Z,18.40
2018-04-19T14:51:37.655Z,21.30
2018-04-19T14:54:04.505Z,21.03
2018-04-19T14:56:31.503Z,19.30
2018-04-19T14:58:58.281Z,21.40
2018-04-19T15:01:25.117Z,19.10
2018-04-19T15:03:51.979Z,20.20
2018-04-19T15:06:18.804Z,19.77
2018-04-19T15:08:45.533Z,18.37
2018-04-19T15:11:12.581Z,19.50
2018-04-19T15:13:39.311Z,20.40
2018-04-19T15:16:06.074Z,20.87
2018-04-19T15:18:32.872Z,20.50
2018-04-19T15:20:59.580Z,20.30
2018-04-19T15:23:26.305Z,19.23
2018-04-19T15:25:53.182Z,20.10
2018-04-19T15:28:19.948Z,21.20
2018-04-19T15:30:46.786Z,19.13
2018-04-19T15:33:13.563Z,20.43
2018-04-19T15:35:40.307Z,20.47
2018-04-19T15:38:07.104Z,22.70
2018-04-19T15:40:33.961Z,19.53
2018-04-19T15:43:00.792Z,19.60
2018-04-19T15:45:27.587Z,19.40
2018-04-19T15:47:54.470Z,19.10
2018-04-19T15:50:21.426Z,24.33
2018-04-19T15:52:48.232Z,21.07
2018-04-19T15:55:15.000Z,23.00
2018-04-19T15:57:41.792Z,19.70
2018-04-19T16:00:08.588Z,19.97
2018-04-19T16:02:35.328Z,19.70
2018-04-19T16:05:02.151Z,21.97
2018-04-19T16:07:28.986Z,25.80
2018-04-19T16:09:55.944Z,19.50
2018-04-19T16:12:22.700Z,19.40
2018-04-19T16:14:49.427Z,18.80
2018-04-19T16:17:16.369Z,20.17
2018-04-19T16:19:43.316Z,22.37
2018-04-19T16:22:10.056Z,18.60
2018-04-19T16:24:36.865Z,21.23
2018-04-19T16:27:03.857Z,19.77
2018-04-19T16:29:30.588Z,20.00
2018-04-19T16:31:58.636Z,20.20
2018-04-19T16:34:25.461Z,20.60
2018-04-19T16:36:52.186Z,19.30
2018-04-19T16:39:19.071Z,21.50
2018-04-19T16:41:46.048Z,19.57
2018-04-19T16:44:12.840Z,22.10
2018-04-19T16:46:39.555Z,22.07
2018-04-19T16:49:06.311Z,22.20
2018-04-19T16:51:33.314Z,20.17
2018-04-19T16:54:00.018Z,20.83
2018-04-19T16:56:26.842Z,21.20
2018-04-19T16:58:53.693Z,21.20
2018-04-19T17:01:20.403Z,21.33
2018-04-19T17:03:47.172Z,21.80
2018-04-19T17:06:13.924Z,21.47
2018-04-19T17:08:41.159Z,20.27
2018-04-19T17:11:08.170Z,20.60
2018-04-19T17:13:34.942Z,21.53
2018-04-19T17:16:01.680Z,19.00
2018-04-19T17:18:28.581Z,22.30
2018-04-19T17:20:55.676Z,19.27
2018-04-19T17:23:22.510Z,23.17
2018-04-19T17:25:49.292Z,19.70
2018-04-19T17:28:16.057Z,20.90
2018-04-19T17:30:42.886Z,20.80
2018-04-19T17:33:09.674Z,20.70
2018-04-19T17:35:36.684Z,20.30
2018-04-19T17:38:04.126Z,21.00
2018-04-19T17:40:31.076Z,20.03
2018-04-19T17:42:57.809Z,19.60
2018-04-19T17:45:24.797Z,20.40
2018-04-19T17:47:51.551Z,21.57
2018-04-19T17:50:18.481Z,23.53
2018-04-19T17:52:45.265Z,21.93
2018-04-19T17:55:12.046Z,20.57
2018-04-19T17:57:38.795Z,19.70
2018-04-19T18:00:05.514Z,21.20
2018-04-19T18:02:32.291Z,20.30
2018-04-19T18:04:59.007Z,20.20
2018-04-19T18:07:25.807Z,21.53
2018-04-19T18:09:52.551Z,24.03
2018-04-19T18:12:19.283Z,20.47
2018-04-19T18:14:46.100Z,22.20
2018-04-19T18:17:12.978Z,19.97
2018-04-19T18:19:39.758Z,24.43
2018-04-19T18:22:06.657Z,22.03
2018-04-19T18:24:33.433Z,21.43
2018-04-19T18:27:01.373Z,24.47
2018-04-19T18:29:28.243Z,21.40
2018-04-19T18:31:54.994Z,20.60
2018-04-19T18:34:22.055Z,23.30
2018-04-19T18:36:48.916Z,20.67
2018-04-19T18:39:15.661Z,22.87
2018-04-19T18:41:42.424Z,21.87
2018-04-19T18:44:09.274Z,22.83
2018-04-19T18:46:36.161Z,21.83
2018-04-19T18:49:03.160Z,23.70
2018-04-19T18:51:30.155Z,19.77
2018-04-19T18:53:57.567Z,19.97
2018-04-19T18:56:24.765Z,22.13
2018-04-19T18:58:51.618Z,22.10
2018-04-19T19:01:18.252Z,20.93
2018-04-19T19:03:45.080Z,19.80
2018-04-19T19:06:11.828Z,21.17
2018-04-19T19:08:38.671Z,21.60
2018-04-19T19:11:06.125Z,23.40
2018-04-19T19:13:32.859Z,21.57
2018-04-19T19:16:14.548Z,20.70
2018-04-19T19:18:47.245Z,23.60
2018-04-19T19:21:14.093Z,23.53
2018-04-19T19:23:41.043Z,22.90
2018-04-19T19:26:08.614Z,22.73
2018-04-19T19:28:35.502Z,24.60
2018-04-19T19:31:02.248Z,25.03
2018-04-19T19:33:29.965Z,24.63
2018-04-19T19:35:56.874Z,27.17
2018-04-19T19:38:23.681Z,24.10
2018-04-19T19:40:50.429Z,23.70
2018-04-19T19:43:17.235Z,23.10
2018-04-19T19:45:44.738Z,22.10
2018-04-19T19:48:11.393Z,25.80
2018-04-19T19:50:38.091Z,27.83
2018-04-19T19:53:04.914Z,22.30
2018-04-19T19:55:31.735Z,24.07
2018-04-19T19:57:58.774Z,24.80
2018-04-19T20:00:25.589Z,22.07
2018-04-19T20:02:52.633Z,22.63
2018-04-19T20:05:19.390Z,25.37
2018-04-19T20:07:46.136Z,25.10
2018-04-19T20:10:13.062Z,22.90
2018-04-19T20:12:39.875Z,23.30
2018-04-19T20:15:06.735Z,24.40
2018-04-19T20:17:33.447Z,25.37
2018-04-19T20:20:00.367Z,23.53
2018-04-19T20:22:27.059Z,21.90
2018-04-19T20:24:53.706Z,23.57
2018-04-19T20:27:20.386Z,23.23
2018-04-19T20:29:47.011Z,25.60
2018-04-19T20:32:13.688Z,24.57
2018-04-19T20:34:40.300Z,24.43
2018-04-19T20:37:06.951Z,22.57
2018-04-19T20:39:33.578Z,23.40
2018-04-19T20:42:00.243Z,22.40
2018-04-19T20:44:26.927Z,22.03
2018-04-19T20:46:53.649Z,23.20
2018-04-19T20:49:21.125Z,25.53
2018-04-19T20:51:47.952Z,21.90
2018-04-19T20:54:14.610Z,22.33
2018-04-19T20:56:41.310Z,23.53
2018-04-19T20:59:07.996Z,23.27
2018-04-19T21:01:34.615Z,23.17
2018-04-19T21:04:01.282Z,23.00
2018-04-19T21:06:27.963Z,24.43
2018-04-19T21:08:54.757Z,24.00
2018-04-19T21:11:21.451Z,22.87
2018-04-19T21:13:48.220Z,22.43
2018-04-19T21:16:15.581Z,22.70
2018-04-19T21:18:42.329Z,22.20
2018-04-19T21:21:09.073Z,20.93
2018-04-19T21:23:35.869Z,21.27
2018-04-19T21:26:02.625Z,21.20
2018-04-19T21:28:29.294Z,21.00
2018-04-19T21:30:56.762Z,21.33
2018-04-19T21:33:23.530Z,20.00
2018-04-19T21:35:50.260Z,28.93
2018-04-19T21:38:17.095Z,21.30
2018-04-19T21:40:43.951Z,21.57
2018-04-19T21:43:10.788Z,20.97
2018-04-19T21:45:37.564Z,22.87
2018-04-19T21:48:04.287Z,21.10
2018-04-19T21:50:31.083Z,21.70
2018-04-19T21:52:57.812Z,20.83
2018-04-19T21:55:24.503Z,24.10
2018-04-19T21:57:51.229Z,20.37
2018-04-19T22:00:17.944Z,19.90
2018-04-19T22:02:44.765Z,24.30
2018-04-19T22:05:11.504Z,22.23
2018-04-19T22:07:38.327Z,20.62
2018-04-19T22:10:05.033Z,21.33
2018-04-19T22:12:31.668Z,20.67
2018-04-19T22:14:58.441Z,19.90
2018-04-19T22:17:25.132Z,22.67
2018-04-19T22:19:51.759Z,21.25
2018-04-19T22:22:18.494Z,22.50
2018-04-19T22:24:45.138Z,22.30
2018-04-19T22:27:11.755Z,20.83
2018-04-19T22:29:38.469Z,22.50
2018-04-19T22:32:05.102Z,21.23
2018-04-19T22:34:32.348Z,20.40
2018-04-19T22:36:58.969Z,23.33
2018-04-19T22:39:25.647Z,23.42
2018-04-19T22:41:52.285Z,24.95
2018-04-19T22:44:18.979Z,21.77
2018-04-19T22:46:45.674Z,23.27
2018-04-19T22:49:12.354Z,22.60
2018-04-19T22:51:39.071Z,20.80
2018-04-19T22:54:05.738Z,21.67
2018-04-19T22:56:32.458Z,24.12
2018-04-19T22:58:59.150Z,22.85
2018-04-19T23:01:25.851Z,22.40
2018-04-19T23:03:52.539Z,21.83
2018-04-19T23:06:19.313Z,23.23
2018-04-19T23:08:46.050Z,23.60
2018-04-19T23:11:12.741Z,24.67
2018-04-19T23:13:39.409Z,24.58
2018-04-19T23:16:06.124Z,24.98
2018-04-19T23:18:32.799Z,26.08
2018-04-19T23:20:59.482Z,23.05
2018-04-19T23:23:26.152Z,24.77
2018-04-19T23:25:52.848Z,25.62
2018-04-19T23:28:19.527Z,25.80
2018-04-19T23:30:46.194Z,26.40
2018-04-19T23:33:12.883Z,25.42
2018-04-19T23:35:39.541Z,28.60
2018-04-19T23:38:06.222Z,24.60
2018-04-19T23:40:32.881Z,28.15
2018-04-19T23:42:59.562Z,26.17
2018-04-19T23:45:26.234Z,27.45
2018-04-19T23:47:52.954Z,24.25
2018-04-19T23:50:19.635Z,25.62
2018-04-19T23:52:46.316Z,25.58
2018-04-19T23:55:12.977Z,23.02
2018-04-19T23:57:39.667Z,24.50
